sensor_id;sensor_type;location;lat;lon;timestamp;temperature;humidity
75457;SHT31;64036;48.266;14.192;2023-07-20T00:01:24;19.60;73.04
75457;SHT31;64036;48.266;14.192;2023-07-20T00:03:50;19.57;73.22
75457;SHT31;64036;48.266;14.192;2023-07-20T00:06:20;19.53;73.42
75457;SHT31;64036;48.266;14.192;2023-07-20T00:08:47;19.50;73.66
75457;SHT31;64036;48.266;14.192;2023-07-20T00:11:13;19.44;73.72
75457;SHT31;64036;48.266;14.192;2023-07-20T00:13:39;19.38;73.76
75457;SHT31;64036;48.266;14.192;2023-07-20T00:16:06;19.31;73.90
75457;SHT31;64036;48.266;14.192;2023-07-20T00:18:31;19.25;74.07
75457;SHT31;64036;48.266;14.192;2023-07-20T00:20:57;19.20;74.31
75457;SHT31;64036;48.266;14.192;2023-07-20T00:23:25;19.18;74.64
75457;SHT31;64036;48.266;14.192;2023-07-20T00:25:51;19.17;74.75
75457;SHT31;64036;48.266;14.192;2023-07-20T00:28:17;19.17;74.88
75457;SHT31;64036;48.266;14.192;2023-07-20T00:30:43;19.16;75.23
75457;SHT31;64036;48.266;14.192;2023-07-20T00:33:10;19.17;75.47
75457;SHT31;64036;48.266;14.192;2023-07-20T00:35:37;19.18;75.48
75457;SHT31;64036;48.266;14.192;2023-07-20T00:38:05;19.20;75.54
75457;SHT31;64036;48.266;14.192;2023-07-20T00:40:38;19.21;75.63
75457;SHT31;64036;48.266;14.192;2023-07-20T00:43:05;19.23;75.57
75457;SHT31;64036;48.266;14.192;2023-07-20T00:45:31;19.25;75.65
75457;SHT31;64036;48.266;14.192;2023-07-20T00:47:59;19.27;75.54
75457;SHT31;64036;48.266;14.192;2023-07-20T00:50:26;19.27;75.54
75457;SHT31;64036;48.266;14.192;2023-07-20T00:52:54;19.29;75.34
75457;SHT31;64036;48.266;14.192;2023-07-20T00:55:21;19.31;75.25
75457;SHT31;64036;48.266;14.192;2023-07-20T00:57:47;19.32;75.12
75457;SHT31;64036;48.266;14.192;2023-07-20T01:00:13;19.33;75.06
75457;SHT31;64036;48.266;14.192;2023-07-20T01:02:40;19.34;75.07
75457;SHT31;64036;48.266;14.192;2023-07-20T01:05:06;19.32;75.13
75457;SHT31;64036;48.266;14.192;2023-07-20T01:07:42;19.23;75.49
75457;SHT31;64036;48.266;14.192;2023-07-20T01:12:53;19.19;75.48
75457;SHT31;64036;48.266;14.192;2023-07-20T01:15:20;19.15;75.86
75457;SHT31;64036;48.266;14.192;2023-07-20T01:17:46;19.13;76.04
75457;SHT31;64036;48.266;14.192;2023-07-20T01:20:15;19.12;75.88
75457;SHT31;64036;48.266;14.192;2023-07-20T01:23:22;19.12;75.81
75457;SHT31;64036;48.266;14.192;2023-07-20T01:33:55;18.93;76.07
75457;SHT31;64036;48.266;14.192;2023-07-20T01:36:24;19.01;76.13
75457;SHT31;64036;48.266;14.192;2023-07-20T01:38:52;19.07;76.01
75457;SHT31;64036;48.266;14.192;2023-07-20T01:41:19;19.08;76.15
75457;SHT31;64036;48.266;14.192;2023-07-20T01:43:45;19.07;76.34
75457;SHT31;64036;48.266;14.192;2023-07-20T01:46:11;19.09;76.49
75457;SHT31;64036;48.266;14.192;2023-07-20T01:48:37;19.12;76.58
75457;SHT31;64036;48.266;14.192;2023-07-20T01:51:02;19.15;76.61
75457;SHT31;64036;48.266;14.192;2023-07-20T01:53:28;19.18;76.58
75457;SHT31;64036;48.266;14.192;2023-07-20T01:55:54;19.23;76.74
75457;SHT31;64036;48.266;14.192;2023-07-20T01:58:20;19.27;76.72
75457;SHT31;64036;48.266;14.192;2023-07-20T02:00:46;19.32;76.63
75457;SHT31;64036;48.266;14.192;2023-07-20T02:03:11;19.34;76.62
75457;SHT31;64036;48.266;14.192;2023-07-20T02:05:38;19.35;76.65
75457;SHT31;64036;48.266;14.192;2023-07-20T02:08:06;19.38;76.73
75457;SHT31;64036;48.266;14.192;2023-07-20T02:10:32;19.42;76.64
75457;SHT31;64036;48.266;14.192;2023-07-20T02:12:58;19.46;76.53
75457;SHT31;64036;48.266;14.192;2023-07-20T02:15:23;19.45;76.69
75457;SHT31;64036;48.266;14.192;2023-07-20T02:17:49;19.45;76.65
75457;SHT31;64036;48.266;14.192;2023-07-20T02:20:14;19.46;76.47
75457;SHT31;64036;48.266;14.192;2023-07-20T02:22:40;19.48;76.41
75457;SHT31;64036;48.266;14.192;2023-07-20T02:25:07;19.48;76.25
75457;SHT31;64036;48.266;14.192;2023-07-20T02:27:37;19.47;76.05
75457;SHT31;64036;48.266;14.192;2023-07-20T02:30:04;19.47;76.05
75457;SHT31;64036;48.266;14.192;2023-07-20T02:32:30;19.47;75.94
75457;SHT31;64036;48.266;14.192;2023-07-20T02:34:57;19.45;76.00
75457;SHT31;64036;48.266;14.192;2023-07-20T02:37:23;19.42;76.13
75457;SHT31;64036;48.266;14.192;2023-07-20T02:39:49;19.39;76.24
75457;SHT31;64036;48.266;14.192;2023-07-20T02:42:15;19.36;76.30
75457;SHT31;64036;48.266;14.192;2023-07-20T02:44:40;19.35;76.30
75457;SHT31;64036;48.266;14.192;2023-07-20T02:47:06;19.37;76.29
75457;SHT31;64036;48.266;14.192;2023-07-20T02:49:32;19.39;76.32
75457;SHT31;64036;48.266;14.192;2023-07-20T02:51:57;19.40;76.24
75457;SHT31;64036;48.266;14.192;2023-07-20T02:54:23;19.42;76.18
75457;SHT31;64036;48.266;14.192;2023-07-20T02:56:49;19.42;76.30
75457;SHT31;64036;48.266;14.192;2023-07-20T02:59:14;19.41;76.39
75457;SHT31;64036;48.266;14.192;2023-07-20T03:01:40;19.40;76.57
75457;SHT31;64036;48.266;14.192;2023-07-20T03:04:08;19.39;76.61
75457;SHT31;64036;48.266;14.192;2023-07-20T03:06:37;19.40;76.66
75457;SHT31;64036;48.266;14.192;2023-07-20T03:09:02;19.43;76.73
75457;SHT31;64036;48.266;14.192;2023-07-20T03:11:29;19.43;76.77
75457;SHT31;64036;48.266;14.192;2023-07-20T03:13:55;19.42;76.76
75457;SHT31;64036;48.266;14.192;2023-07-20T03:16:21;19.44;76.76
75457;SHT31;64036;48.266;14.192;2023-07-20T03:18:50;19.43;76.69
75457;SHT31;64036;48.266;14.192;2023-07-20T03:21:16;19.41;76.60
75457;SHT31;64036;48.266;14.192;2023-07-20T03:23:41;19.40;76.58
75457;SHT31;64036;48.266;14.192;2023-07-20T03:26:07;19.38;76.59
75457;SHT31;64036;48.266;14.192;2023-07-20T03:28:37;19.39;76.49
75457;SHT31;64036;48.266;14.192;2023-07-20T03:31:03;19.37;76.56
75457;SHT31;64036;48.266;14.192;2023-07-20T03:33:31;19.35;76.50
75457;SHT31;64036;48.266;14.192;2023-07-20T03:35:57;19.35;76.45
75457;SHT31;64036;48.266;14.192;2023-07-20T03:38:23;19.35;76.43
75457;SHT31;64036;48.266;14.192;2023-07-20T03:40:51;19.35;76.56
75457;SHT31;64036;48.266;14.192;2023-07-20T03:43:23;19.34;76.75
75457;SHT31;64036;48.266;14.192;2023-07-20T03:45:50;19.35;76.67
75457;SHT31;64036;48.266;14.192;2023-07-20T03:48:19;19.36;76.64
75457;SHT31;64036;48.266;14.192;2023-07-20T03:50:47;19.37;76.79
75457;SHT31;64036;48.266;14.192;2023-07-20T03:53:15;19.37;76.85
75457;SHT31;64036;48.266;14.192;2023-07-20T03:55:45;19.37;77.01
75457;SHT31;64036;48.266;14.192;2023-07-20T03:58:12;19.42;76.87
75457;SHT31;64036;48.266;14.192;2023-07-20T04:00:39;19.48;76.68
75457;SHT31;64036;48.266;14.192;2023-07-20T04:03:05;19.49;76.63
75457;SHT31;64036;48.266;14.192;2023-07-20T04:05:31;19.49;76.76
75457;SHT31;64036;48.266;14.192;2023-07-20T04:07:56;19.51;76.57
75457;SHT31;64036;48.266;14.192;2023-07-20T04:10:22;19.54;76.62
75457;SHT31;64036;48.266;14.192;2023-07-20T04:12:47;19.56;76.60
75457;SHT31;64036;48.266;14.192;2023-07-20T04:15:13;19.61;76.52
75457;SHT31;64036;48.266;14.192;2023-07-20T04:17:40;19.71;76.40
75457;SHT31;64036;48.266;14.192;2023-07-20T04:20:06;19.89;76.29
75457;SHT31;64036;48.266;14.192;2023-07-20T04:22:33;20.23;75.80
75457;SHT31;64036;48.266;14.192;2023-07-20T04:24:59;20.42;75.17
75457;SHT31;64036;48.266;14.192;2023-07-20T04:27:25;20.42;75.11
75457;SHT31;64036;48.266;14.192;2023-07-20T04:29:51;20.48;75.11
75457;SHT31;64036;48.266;14.192;2023-07-20T04:32:17;20.52;75.05
75457;SHT31;64036;48.266;14.192;2023-07-20T04:34:42;20.56;75.03
75457;SHT31;64036;48.266;14.192;2023-07-20T04:37:08;20.62;74.93
75457;SHT31;64036;48.266;14.192;2023-07-20T04:39:34;20.67;74.70
75457;SHT31;64036;48.266;14.192;2023-07-20T04:41:59;20.71;74.59
75457;SHT31;64036;48.266;14.192;2023-07-20T04:44:25;20.77;74.47
75457;SHT31;64036;48.266;14.192;2023-07-20T04:46:51;20.88;74.50
75457;SHT31;64036;48.266;14.192;2023-07-20T04:49:17;21.03;74.63
75457;SHT31;64036;48.266;14.192;2023-07-20T04:51:42;21.43;74.40
75457;SHT31;64036;48.266;14.192;2023-07-20T04:54:08;21.95;73.80
75457;SHT31;64036;48.266;14.192;2023-07-20T04:56:33;22.65;72.80
75457;SHT31;64036;48.266;14.192;2023-07-20T04:58:59;23.35;71.19
75457;SHT31;64036;48.266;14.192;2023-07-20T05:01:25;23.45;70.15
75457;SHT31;64036;48.266;14.192;2023-07-20T05:03:52;23.32;70.00
75457;SHT31;64036;48.266;14.192;2023-07-20T05:06:18;23.23;69.76
75457;SHT31;64036;48.266;14.192;2023-07-20T05:08:44;23.15;69.66
75457;SHT31;64036;48.266;14.192;2023-07-20T05:11:10;23.05;69.62
75457;SHT31;64036;48.266;14.192;2023-07-20T05:13:37;22.91;69.46
75457;SHT31;64036;48.266;14.192;2023-07-20T05:16:03;22.74;69.50
75457;SHT31;64036;48.266;14.192;2023-07-20T05:18:29;22.68;69.50
75457;SHT31;64036;48.266;14.192;2023-07-20T05:20:54;22.68;69.39
75457;SHT31;64036;48.266;14.192;2023-07-20T05:23:20;22.69;69.34
75457;SHT31;64036;48.266;14.192;2023-07-20T05:25:47;22.65;69.24
75457;SHT31;64036;48.266;14.192;2023-07-20T05:28:20;22.64;69.26
75457;SHT31;64036;48.266;14.192;2023-07-20T05:30:45;22.64;69.25
75457;SHT31;64036;48.266;14.192;2023-07-20T05:33:11;22.60;69.35
75457;SHT31;64036;48.266;14.192;2023-07-20T05:35:37;22.56;69.41
75457;SHT31;64036;48.266;14.192;2023-07-20T05:38:02;22.56;69.43
75457;SHT31;64036;48.266;14.192;2023-07-20T05:40:30;22.59;69.37
75457;SHT31;64036;48.266;14.192;2023-07-20T05:42:55;22.74;69.65
75457;SHT31;64036;48.266;14.192;2023-07-20T05:45:22;23.56;68.69
75457;SHT31;64036;48.266;14.192;2023-07-20T05:47:48;23.88;67.71
75457;SHT31;64036;48.266;14.192;2023-07-20T05:50:13;23.90;67.39
75457;SHT31;64036;48.266;14.192;2023-07-20T05:52:39;23.84;66.96
75457;SHT31;64036;48.266;14.192;2023-07-20T05:55:06;23.78;66.78
75457;SHT31;64036;48.266;14.192;2023-07-20T05:57:32;23.72;66.53
75457;SHT31;64036;48.266;14.192;2023-07-20T06:00:00;24.30;65.91
75457;SHT31;64036;48.266;14.192;2023-07-20T06:02:26;25.40;64.43
75457;SHT31;64036;48.266;14.192;2023-07-20T06:04:52;25.72;63.02
75457;SHT31;64036;48.266;14.192;2023-07-20T06:07:17;26.12;62.06
75457;SHT31;64036;48.266;14.192;2023-07-20T06:09:43;27.24;60.65
75457;SHT31;64036;48.266;14.192;2023-07-20T06:12:08;28.43;58.56
75457;SHT31;64036;48.266;14.192;2023-07-20T06:14:34;29.53;56.15
75457;SHT31;64036;48.266;14.192;2023-07-20T06:17:00;29.41;54.64
75457;SHT31;64036;48.266;14.192;2023-07-20T06:19:26;28.68;54.53
75457;SHT31;64036;48.266;14.192;2023-07-20T06:21:52;28.04;55.24
75457;SHT31;64036;48.266;14.192;2023-07-20T06:24:17;27.41;55.84
75457;SHT31;64036;48.266;14.192;2023-07-20T06:26:43;26.83;56.66
75457;SHT31;64036;48.266;14.192;2023-07-20T06:29:09;26.37;57.41
75457;SHT31;64036;48.266;14.192;2023-07-20T06:31:35;26.03;57.95
75457;SHT31;64036;48.266;14.192;2023-07-20T06:34:02;25.75;58.52
75457;SHT31;64036;48.266;14.192;2023-07-20T06:36:28;25.46;58.84
75457;SHT31;64036;48.266;14.192;2023-07-20T06:38:54;25.16;59.40
75457;SHT31;64036;48.266;14.192;2023-07-20T06:41:21;25.13;59.76
75457;SHT31;64036;48.266;14.192;2023-07-20T06:43:47;25.47;59.98
75457;SHT31;64036;48.266;14.192;2023-07-20T06:46:13;26.15;59.29
75457;SHT31;64036;48.266;14.192;2023-07-20T06:48:39;26.90;58.26
75457;SHT31;64036;48.266;14.192;2023-07-20T06:51:04;27.28;56.15
75457;SHT31;64036;48.266;14.192;2023-07-20T06:53:31;27.14;56.40
75457;SHT31;64036;48.266;14.192;2023-07-20T06:55:56;27.22;55.48
75457;SHT31;64036;48.266;14.192;2023-07-20T06:58:23;26.94;55.29
75457;SHT31;64036;48.266;14.192;2023-07-20T07:00:49;26.55;55.78
75457;SHT31;64036;48.266;14.192;2023-07-20T07:03:14;26.32;56.48
75457;SHT31;64036;48.266;14.192;2023-07-20T07:05:40;26.22;56.22
75457;SHT31;64036;48.266;14.192;2023-07-20T07:08:06;26.23;56.23
75457;SHT31;64036;48.266;14.192;2023-07-20T07:10:33;26.13;56.69
75457;SHT31;64036;48.266;14.192;2023-07-20T07:13:00;26.03;56.94
75457;SHT31;64036;48.266;14.192;2023-07-20T07:15:26;25.99;56.83
75457;SHT31;64036;48.266;14.192;2023-07-20T07:17:52;26.05;55.92
75457;SHT31;64036;48.266;14.192;2023-07-20T07:20:18;26.13;55.26
75457;SHT31;64036;48.266;14.192;2023-07-20T07:22:44;26.24;54.29
75457;SHT31;64036;48.266;14.192;2023-07-20T07:25:11;26.12;54.47
75457;SHT31;64036;48.266;14.192;2023-07-20T07:27:37;26.35;54.30
75457;SHT31;64036;48.266;14.192;2023-07-20T07:30:03;27.43;51.76
75457;SHT31;64036;48.266;14.192;2023-07-20T07:32:30;28.50;50.38
75457;SHT31;64036;48.266;14.192;2023-07-20T07:34:56;29.03;49.34
75457;SHT31;64036;48.266;14.192;2023-07-20T07:37:23;29.81;48.74
75457;SHT31;64036;48.266;14.192;2023-07-20T07:39:49;31.14;46.58
75457;SHT31;64036;48.266;14.192;2023-07-20T07:42:15;32.66;45.15
75457;SHT31;64036;48.266;14.192;2023-07-20T07:44:40;33.88;41.76
75457;SHT31;64036;48.266;14.192;2023-07-20T07:47:06;34.78;39.79
75457;SHT31;64036;48.266;14.192;2023-07-20T07:49:32;35.61;39.04
75457;SHT31;64036;48.266;14.192;2023-07-20T07:51:58;36.14;37.59
75457;SHT31;64036;48.266;14.192;2023-07-20T07:54:23;36.64;37.03
75457;SHT31;64036;48.266;14.192;2023-07-20T07:56:49;36.50;36.55
75457;SHT31;64036;48.266;14.192;2023-07-20T07:59:16;36.31;35.63
75457;SHT31;64036;48.266;14.192;2023-07-20T08:01:42;36.15;35.89
75457;SHT31;64036;48.266;14.192;2023-07-20T08:04:07;35.74;35.43
75457;SHT31;64036;48.266;14.192;2023-07-20T08:06:33;36.17;35.43
75457;SHT31;64036;48.266;14.192;2023-07-20T08:08:59;36.78;34.36
75457;SHT31;64036;48.266;14.192;2023-07-20T08:11:25;37.06;33.79
75457;SHT31;64036;48.266;14.192;2023-07-20T08:13:51;37.42;33.33
75457;SHT31;64036;48.266;14.192;2023-07-20T08:16:16;37.60;32.21
75457;SHT31;64036;48.266;14.192;2023-07-20T08:18:43;37.51;31.66
75457;SHT31;64036;48.266;14.192;2023-07-20T08:21:10;37.58;32.00
75457;SHT31;64036;48.266;14.192;2023-07-20T08:23:36;37.44;31.77
75457;SHT31;64036;48.266;14.192;2023-07-20T08:26:02;37.37;31.64
75457;SHT31;64036;48.266;14.192;2023-07-20T08:28:27;37.47;32.34
75457;SHT31;64036;48.266;14.192;2023-07-20T08:30:54;37.56;31.59
75457;SHT31;64036;48.266;14.192;2023-07-20T08:33:19;37.74;32.07
75457;SHT31;64036;48.266;14.192;2023-07-20T08:35:45;38.13;31.70
75457;SHT31;64036;48.266;14.192;2023-07-20T08:38:12;38.24;30.25
75457;SHT31;64036;48.266;14.192;2023-07-20T08:40:39;37.76;30.23
75457;SHT31;64036;48.266;14.192;2023-07-20T08:43:11;36.87;31.00
75457;SHT31;64036;48.266;14.192;2023-07-20T08:45:39;36.36;31.13
75457;SHT31;64036;48.266;14.192;2023-07-20T08:48:06;36.17;32.14
75457;SHT31;64036;48.266;14.192;2023-07-20T08:50:33;36.42;32.68
75457;SHT31;64036;48.266;14.192;2023-07-20T08:53:00;36.68;32.23
75457;SHT31;64036;48.266;14.192;2023-07-20T08:55:28;36.94;32.23
75457;SHT31;64036;48.266;14.192;2023-07-20T08:57:55;37.11;32.65
75457;SHT31;64036;48.266;14.192;2023-07-20T09:00:23;37.36;32.20
75457;SHT31;64036;48.266;14.192;2023-07-20T09:02:50;37.61;31.70
75457;SHT31;64036;48.266;14.192;2023-07-20T09:05:18;37.52;32.25
75457;SHT31;64036;48.266;14.192;2023-07-20T09:07:46;37.35;32.08
75457;SHT31;64036;48.266;14.192;2023-07-20T09:10:12;37.41;32.20
75457;SHT31;64036;48.266;14.192;2023-07-20T09:12:39;37.63;32.20
75457;SHT31;64036;48.266;14.192;2023-07-20T09:15:09;37.96;31.60
75457;SHT31;64036;48.266;14.192;2023-07-20T09:17:37;37.80;30.45
75457;SHT31;64036;48.266;14.192;2023-07-20T09:20:03;37.41;31.28
75457;SHT31;64036;48.266;14.192;2023-07-20T09:22:33;36.79;31.42
75457;SHT31;64036;48.266;14.192;2023-07-20T09:24:59;35.96;31.96
75457;SHT31;64036;48.266;14.192;2023-07-20T09:27:35;35.60;33.15
75457;SHT31;64036;48.266;14.192;2023-07-20T09:30:05;35.58;33.50
75457;SHT31;64036;48.266;14.192;2023-07-20T09:32:54;35.31;33.10
75457;SHT31;64036;48.266;14.192;2023-07-20T09:35:21;34.92;34.21
75457;SHT31;64036;48.266;14.192;2023-07-20T09:40:24;34.47;34.13
75457;SHT31;64036;48.266;14.192;2023-07-20T09:42:54;34.11;34.49
75457;SHT31;64036;48.266;14.192;2023-07-20T09:45:35;33.82;35.28
75457;SHT31;64036;48.266;14.192;2023-07-20T09:48:05;33.73;35.77
75457;SHT31;64036;48.266;14.192;2023-07-20T09:50:32;33.38;35.49
75457;SHT31;64036;48.266;14.192;2023-07-20T09:53:00;33.02;36.33
75457;SHT31;64036;48.266;14.192;2023-07-20T09:55:27;32.78;36.79
75457;SHT31;64036;48.266;14.192;2023-07-20T09:57:54;32.69;36.78
75457;SHT31;64036;48.266;14.192;2023-07-20T10:00:21;33.11;36.79
75457;SHT31;64036;48.266;14.192;2023-07-20T10:02:47;33.59;36.48
75457;SHT31;64036;48.266;14.192;2023-07-20T10:05:17;34.08;35.69
75457;SHT31;64036;48.266;14.192;2023-07-20T10:07:47;34.55;35.24
75457;SHT31;64036;48.266;14.192;2023-07-20T10:10:16;35.10;35.32
75457;SHT31;64036;48.266;14.192;2023-07-20T10:12:47;35.47;34.17
75457;SHT31;64036;48.266;14.192;2023-07-20T10:15:24;35.40;33.67
75457;SHT31;64036;48.266;14.192;2023-07-20T10:18:07;34.83;33.43
75457;SHT31;64036;48.266;14.192;2023-07-20T10:20:49;34.54;33.47
75457;SHT31;64036;48.266;14.192;2023-07-20T10:23:19;34.61;34.75
75457;SHT31;64036;48.266;14.192;2023-07-20T10:25:46;34.43;34.43
75457;SHT31;64036;48.266;14.192;2023-07-20T10:28:12;34.32;35.51
75457;SHT31;64036;48.266;14.192;2023-07-20T10:30:38;34.25;35.62
75457;SHT31;64036;48.266;14.192;2023-07-20T10:33:05;34.22;35.88
75457;SHT31;64036;48.266;14.192;2023-07-20T10:35:50;34.15;35.25
75457;SHT31;64036;48.266;14.192;2023-07-20T10:38:52;34.03;33.86
75457;SHT31;64036;48.266;14.192;2023-07-20T10:41:29;33.35;33.35
75457;SHT31;64036;48.266;14.192;2023-07-20T10:44:04;33.08;34.95
75457;SHT31;64036;48.266;14.192;2023-07-20T10:49:07;32.78;35.25
75457;SHT31;64036;48.266;14.192;2023-07-20T10:52:17;32.29;34.93
75457;SHT31;64036;48.266;14.192;2023-07-20T10:56:50;31.19;36.53
75457;SHT31;64036;48.266;14.192;2023-07-20T10:59:20;30.94;36.37
75457;SHT31;64036;48.266;14.192;2023-07-20T11:02:07;30.91;37.64
75457;SHT31;64036;48.266;14.192;2023-07-20T11:04:44;31.08;37.46
75457;SHT31;64036;48.266;14.192;2023-07-20T11:07:23;31.07;37.42
75457;SHT31;64036;48.266;14.192;2023-07-20T11:10:16;31.02;37.59
75457;SHT31;64036;48.266;14.192;2023-07-20T11:13:11;30.98;37.89
75457;SHT31;64036;48.266;14.192;2023-07-20T11:15:44;31.10;38.01
75457;SHT31;64036;48.266;14.192;2023-07-20T11:18:27;31.35;38.74
75457;SHT31;64036;48.266;14.192;2023-07-20T11:20:53;31.18;37.28
75457;SHT31;64036;48.266;14.192;2023-07-20T11:23:20;30.99;36.98
75457;SHT31;64036;48.266;14.192;2023-07-20T11:25:46;30.66;37.24
75457;SHT31;64036;48.266;14.192;2023-07-20T11:28:11;30.48;38.07
75457;SHT31;64036;48.266;14.192;2023-07-20T11:30:38;30.39;38.19
75457;SHT31;64036;48.266;14.192;2023-07-20T11:33:13;30.14;37.64
75457;SHT31;64036;48.266;14.192;2023-07-20T11:35:42;29.83;37.84
75457;SHT31;64036;48.266;14.192;2023-07-20T11:38:09;29.53;38.21
75457;SHT31;64036;48.266;14.192;2023-07-20T11:40:35;29.28;38.80
75457;SHT31;64036;48.266;14.192;2023-07-20T11:43:00;29.14;39.23
75457;SHT31;64036;48.266;14.192;2023-07-20T11:45:26;29.12;39.43
75457;SHT31;64036;48.266;14.192;2023-07-20T11:47:52;29.29;39.93
75457;SHT31;64036;48.266;14.192;2023-07-20T11:50:18;29.34;39.33
75457;SHT31;64036;48.266;14.192;2023-07-20T11:52:44;29.43;39.13
75457;SHT31;64036;48.266;14.192;2023-07-20T11:55:10;29.40;39.10
75457;SHT31;64036;48.266;14.192;2023-07-20T11:57:37;29.63;38.76
75457;SHT31;64036;48.266;14.192;2023-07-20T12:00:04;29.68;37.89
75457;SHT31;64036;48.266;14.192;2023-07-20T12:02:37;29.72;37.83
75457;SHT31;64036;48.266;14.192;2023-07-20T12:05:06;29.71;37.47
75457;SHT31;64036;48.266;14.192;2023-07-20T12:07:41;29.69;36.84
75457;SHT31;64036;48.266;14.192;2023-07-20T12:10:10;29.51;36.35
75457;SHT31;64036;48.266;14.192;2023-07-20T12:12:38;29.55;37.69
75457;SHT31;64036;48.266;14.192;2023-07-20T12:15:16;29.61;37.56
75457;SHT31;64036;48.266;14.192;2023-07-20T12:17:43;29.64;38.03
75457;SHT31;64036;48.266;14.192;2023-07-20T12:20:24;29.58;38.62
75457;SHT31;64036;48.266;14.192;2023-07-20T12:22:58;29.33;37.72
75457;SHT31;64036;48.266;14.192;2023-07-20T12:25:40;28.94;38.01
75457;SHT31;64036;48.266;14.192;2023-07-20T12:28:15;28.61;38.17
75457;SHT31;64036;48.266;14.192;2023-07-20T12:30:43;28.58;38.72
75457;SHT31;64036;48.266;14.192;2023-07-20T12:33:11;28.62;38.38
75457;SHT31;64036;48.266;14.192;2023-07-20T12:35:40;28.67;38.60
75457;SHT31;64036;48.266;14.192;2023-07-20T12:38:08;28.64;37.83
75457;SHT31;64036;48.266;14.192;2023-07-20T12:40:34;28.50;38.34
75457;SHT31;64036;48.266;14.192;2023-07-20T12:43:00;28.46;38.56
75457;SHT31;64036;48.266;14.192;2023-07-20T12:45:25;28.57;39.17
75457;SHT31;64036;48.266;14.192;2023-07-20T12:47:52;28.79;38.57
75457;SHT31;64036;48.266;14.192;2023-07-20T12:50:17;28.97;38.66
75457;SHT31;64036;48.266;14.192;2023-07-20T12:52:43;28.91;37.38
75457;SHT31;64036;48.266;14.192;2023-07-20T12:55:09;28.60;37.30
75457;SHT31;64036;48.266;14.192;2023-07-20T12:57:35;28.32;38.56
75457;SHT31;64036;48.266;14.192;2023-07-20T13:00:06;28.13;38.83
75457;SHT31;64036;48.266;14.192;2023-07-20T13:02:35;28.14;39.12
75457;SHT31;64036;48.266;14.192;2023-07-20T13:05:01;28.27;38.42
75457;SHT31;64036;48.266;14.192;2023-07-20T13:07:32;28.39;38.63
75457;SHT31;64036;48.266;14.192;2023-07-20T13:10:03;28.63;39.57
75457;SHT31;64036;48.266;14.192;2023-07-20T13:12:30;28.97;39.46
75457;SHT31;64036;48.266;14.192;2023-07-20T13:14:58;29.12;38.88
75457;SHT31;64036;48.266;14.192;2023-07-20T13:17:27;29.09;38.64
75457;SHT31;64036;48.266;14.192;2023-07-20T13:19:57;29.03;38.63
75457;SHT31;64036;48.266;14.192;2023-07-20T13:22:22;28.92;39.23
75457;SHT31;64036;48.266;14.192;2023-07-20T13:24:48;28.73;39.32
75457;SHT31;64036;48.266;14.192;2023-07-20T13:27:15;28.63;38.71
75457;SHT31;64036;48.266;14.192;2023-07-20T13:29:45;28.67;38.61
75457;SHT31;64036;48.266;14.192;2023-07-20T13:32:14;28.87;39.51
75457;SHT31;64036;48.266;14.192;2023-07-20T13:34:41;29.08;40.14
75457;SHT31;64036;48.266;14.192;2023-07-20T13:37:07;29.14;38.72
75457;SHT31;64036;48.266;14.192;2023-07-20T13:39:33;29.06;39.28
75457;SHT31;64036;48.266;14.192;2023-07-20T13:41:59;29.03;40.02
75457;SHT31;64036;48.266;14.192;2023-07-20T13:44:27;28.99;39.31
75457;SHT31;64036;48.266;14.192;2023-07-20T13:46:53;28.91;39.47
75457;SHT31;64036;48.266;14.192;2023-07-20T13:49:18;28.77;38.77
75457;SHT31;64036;48.266;14.192;2023-07-20T13:51:44;28.46;38.08
75457;SHT31;64036;48.266;14.192;2023-07-20T13:54:10;28.41;39.07
75457;SHT31;64036;48.266;14.192;2023-07-20T13:56:36;28.59;39.84
75457;SHT31;64036;48.266;14.192;2023-07-20T13:59:02;28.68;39.50
75457;SHT31;64036;48.266;14.192;2023-07-20T14:01:28;28.56;38.60
75457;SHT31;64036;48.266;14.192;2023-07-20T14:03:55;28.36;38.62
75457;SHT31;64036;48.266;14.192;2023-07-20T14:06:21;28.32;39.63
75457;SHT31;64036;48.266;14.192;2023-07-20T14:08:47;28.36;38.57
75457;SHT31;64036;48.266;14.192;2023-07-20T14:11:14;28.26;38.47
75457;SHT31;64036;48.266;14.192;2023-07-20T14:13:40;28.25;38.95
75457;SHT31;64036;48.266;14.192;2023-07-20T14:16:06;28.27;39.02
75457;SHT31;64036;48.266;14.192;2023-07-20T14:18:33;28.25;39.17
75457;SHT31;64036;48.266;14.192;2023-07-20T14:20:58;28.28;39.90
75457;SHT31;64036;48.266;14.192;2023-07-20T14:23:24;28.29;39.91
75457;SHT31;64036;48.266;14.192;2023-07-20T14:25:50;28.22;38.80
75457;SHT31;64036;48.266;14.192;2023-07-20T14:28:16;27.94;38.76
75457;SHT31;64036;48.266;14.192;2023-07-20T14:30:41;27.74;40.01
75457;SHT31;64036;48.266;14.192;2023-07-20T14:33:07;27.65;39.80
75457;SHT31;64036;48.266;14.192;2023-07-20T14:35:33;27.66;40.34
75457;SHT31;64036;48.266;14.192;2023-07-20T14:37:59;27.70;39.62
75457;SHT31;64036;48.266;14.192;2023-07-20T14:40:26;27.73;39.69
75457;SHT31;64036;48.266;14.192;2023-07-20T14:42:52;27.75;40.47
75457;SHT31;64036;48.266;14.192;2023-07-20T14:45:18;27.80;40.80
75457;SHT31;64036;48.266;14.192;2023-07-20T14:47:44;27.84;40.17
75457;SHT31;64036;48.266;14.192;2023-07-20T14:50:10;27.79;39.21
75457;SHT31;64036;48.266;14.192;2023-07-20T14:52:36;27.73;39.75
75457;SHT31;64036;48.266;14.192;2023-07-20T14:55:02;27.67;40.53
75457;SHT31;64036;48.266;14.192;2023-07-20T14:57:29;27.60;39.68
75457;SHT31;64036;48.266;14.192;2023-07-20T14:59:55;27.52;40.08
75457;SHT31;64036;48.266;14.192;2023-07-20T15:02:20;27.54;41.25
75457;SHT31;64036;48.266;14.192;2023-07-20T15:04:47;27.50;41.14
75457;SHT31;64036;48.266;14.192;2023-07-20T15:07:15;27.46;40.09
75457;SHT31;64036;48.266;14.192;2023-07-20T15:09:42;27.40;40.18
75457;SHT31;64036;48.266;14.192;2023-07-20T15:12:08;27.39;39.76
75457;SHT31;64036;48.266;14.192;2023-07-20T15:14:34;27.41;39.42
75457;SHT31;64036;48.266;14.192;2023-07-20T15:17:00;27.40;39.69
75457;SHT31;64036;48.266;14.192;2023-07-20T15:19:26;27.34;39.74
75457;SHT31;64036;48.266;14.192;2023-07-20T15:21:51;27.24;40.09
75457;SHT31;64036;48.266;14.192;2023-07-20T15:24:18;27.10;40.11
75457;SHT31;64036;48.266;14.192;2023-07-20T15:26:44;26.99;40.51
75457;SHT31;64036;48.266;14.192;2023-07-20T15:29:09;26.97;40.80
75457;SHT31;64036;48.266;14.192;2023-07-20T15:31:35;27.02;40.41
75457;SHT31;64036;48.266;14.192;2023-07-20T15:34:01;27.08;40.28
75457;SHT31;64036;48.266;14.192;2023-07-20T15:36:27;27.11;40.40